SBKG/CPV METAR and TAF weather

Enter ICAO airport designator
Station Type Date Time Source
SBKG METAR 2019/10/21 05:00 UTC NOAA

SBKG 210500Z 08007KT 9999 SCT010 21/20 Q1012


Station Type Date Time Source
SBKG Decoded METAR 2019/10/21 05:00 UTC NOAA

Campina Grande, Brazil (SBKG) 07-13S 035-53W
Oct 21, 2019 - 01:00 AM EDT / 2019.10.21 0500 UTC
Wind: from the E (080 degrees) at 8 MPH (7 KT):0
Visibility: greater than 7 mile(s):0
Sky conditions: partly cloudy
Temperature: 69 F (21 C)
Dew Point: 68 F (20 C)
Relative Humidity: 94%
Pressure (altimeter): 29.88 in. Hg (1012 hPa)
ob: SBKG 210500Z 08007KT 9999 SCT010 21/20 Q1012
cycle: 5

Station Type Date Time Source
SBKG TAF 2019/10/21 00:33 UTC NOAA

TAF SBKG 202200Z 2100/2112 09011KT 8000 SCT020 TN21/2108Z TX24/2111Z
BECMG 2100/2102 09008KT BKN010
BECMG 2104/2106 SCT005 BKN010
BECMG 2110/2112 BKN015
RMK PFD

Example: see airport list